Time;durP1;ratioP1;P1;durP2;ratioP2;P2;SDS_P1;SDS_P2;PMS_P1;PMS_P2;Temp;Humidity;BMP_temperature;BMP_pressure;BME280_temperature;BME280_humidity;BME280_pressure;Samples;Min_cycle;Max_cycle;Signal;HPM_P1;HPM_P2
2022/12/12 00:02:47;;;;;;;3.92;1.80;;;;;;;;;;10387094;28;20026;-61
2022/12/12 00:07:48;;;;;;;2.65;1.73;;;;;;;;;;10402846;28;20036;-61
2022/12/12 00:12:48;;;;;;;2.10;1.75;;;;;;;;;;10399944;28;20026;-61
2022/12/12 00:17:49;;;;;;;2.50;1.70;;;;;;;;;;10396015;28;20041;-61
2022/12/12 00:22:49;;;;;;;2.30;1.90;;;;;;;;;;10400473;28;20523;-61
2022/12/12 00:27:50;;;;;;;1.90;1.60;;;;;;;;;;10399961;28;20033;-61
2022/12/12 00:32:50;;;;;;;1.58;1.42;;;;;;;;;;10410507;28;20037;-61
2022/12/12 00:37:51;;;;;;;2.28;1.73;;;;;;;;;;10393780;28;20022;-61
2022/12/12 00:42:52;;;;;;;2.83;1.40;;;;;;;;;;10391803;28;20029;-61
2022/12/12 00:47:52;;;;;;;2.40;1.73;;;;;;;;;;10407377;28;20038;-61
2022/12/12 00:52:55;;;;;;;2.97;2.08;;;;;;;;;;10385984;28;20037;-61
2022/12/12 00:57:56;;;;;;;1.98;1.42;;;;;;;;;;10389957;28;20079;-61
2022/12/12 01:02:57;;;;;;;1.70;1.60;;;;;;;;;;10403814;28;20378;-60
2022/12/12 01:07:58;;;;;;;3.03;1.50;;;;;;;;;;10397213;28;20032;-61
2022/12/12 01:12:59;;;;;;;1.70;1.30;;;;;;;;;;10407252;28;20030;-61
2022/12/12 01:17:59;;;;;;;2.38;1.70;;;;;;;;;;10396937;28;20082;-61
2022/12/12 01:23:00;;;;;;;1.80;1.55;;;;;;;;;;10408463;28;20033;-60
2022/12/12 01:28:00;;;;;;;2.72;1.98;;;;;;;;;;10410060;28;20030;-60
2022/12/12 01:33:02;;;;;;;2.28;1.70;;;;;;;;;;10408714;28;20028;-61
2022/12/12 01:38:03;;;;;;;2.85;2.00;;;;;;;;;;10396072;28;20080;-61
2022/12/12 01:43:13;;;;;;;1.80;1.70;;;;;;;;;;10389531;28;20045;-61
2022/12/12 01:48:14;;;;;;;2.60;1.50;;;;;;;;;;10403147;28;20045;-61
2022/12/12 01:53:17;;;;;;;1.95;1.75;;;;;;;;;;10404933;28;20030;-61
2022/12/12 01:58:19;;;;;;;1.85;1.50;;;;;;;;;;10396012;28;20013;-61
2022/12/12 02:03:19;;;;;;;1.60;1.50;;;;;;;;;;10399571;28;20044;-61
2022/12/12 02:08:21;;;;;;;2.75;1.45;;;;;;;;;;10404609;28;20032;-60
2022/12/12 02:13:27;;;;;;;1.65;1.52;;;;;;;;;;10411120;28;20092;-60
2022/12/12 02:18:48;;;;;;;4.20;1.55;;;;;;;;;;10383812;28;20504;-60
2022/12/12 02:23:57;;;;;;;5.25;1.70;;;;;;;;;;10396999;28;20378;-60
2022/12/12 02:29:33;;;;;;;3.30;1.60;;;;;;;;;;10394505;28;20033;-60
2022/12/12 02:35:14;;;;;;;2.25;1.60;;;;;;;;;;10396518;28;20034;-60
2022/12/12 02:40:30;;;;;;;4.97;1.77;;;;;;;;;;10391897;28;20033;-60
2022/12/12 02:45:57;;;;;;;1.85;1.67;;;;;;;;;;10385813;28;20017;-60
2022/12/12 02:51:02;;;;;;;2.53;1.90;;;;;;;;;;10406870;28;20065;-60
2022/12/12 02:56:44;;;;;;;1.77;1.50;;;;;;;;;;10405752;28;20057;-62
2022/12/12 03:01:50;;;;;;;2.38;1.60;;;;;;;;;;10399168;28;20108;-60
2022/12/12 03:12:59;;;;;;;1.95;1.70;;;;;;;;;;10392848;28;20120;-60
2022/12/12 03:18:28;;;;;;;2.08;1.50;;;;;;;;;;10406534;28;20030;-60
2022/12/12 03:23:45;;;;;;;2.28;1.45;;;;;;;;;;10406101;28;20025;-60
2022/12/12 03:28:53;;;;;;;1.60;1.50;;;;;;;;;;10395730;28;20096;-60
2022/12/12 03:34:03;;;;;;;2.47;2.08;;;;;;;;;;10404309;28;20041;-61
2022/12/12 03:39:12;;;;;;;2.40;1.60;;;;;;;;;;10416427;28;20022;-61
2022/12/12 03:44:30;;;;;;;2.03;1.70;;;;;;;;;;10390500;28;20104;-60
2022/12/12 03:49:54;;;;;;;1.87;1.60;;;;;;;;;;10386165;28;20069;-61
2022/12/12 03:55:06;;;;;;;1.50;1.40;;;;;;;;;;10400262;28;20025;-61
2022/12/12 04:00:12;;;;;;;2.17;1.50;;;;;;;;;;10391550;28;20451;-61
2022/12/12 04:06:25;;;;;;;1.90;1.60;;;;;;;;;;10406862;28;20026;-60
2022/12/12 04:16:39;;;;;;;3.95;1.60;;;;;;;;;;10398964;28;20482;-61
2022/12/12 04:27:05;;;;;;;;;;;;;;;;;;10380856;28;20259;-61
2022/12/12 04:32:36;;;;;;;3.00;1.73;;;;;;;;;;10391359;28;19913;-61
2022/12/12 04:37:46;;;;;;;1.95;1.60;;;;;;;;;;10394784;28;20021;-61
2022/12/12 04:43:05;;;;;;;2.65;1.48;;;;;;;;;;10415420;28;20022;-60
2022/12/12 04:48:08;;;;;;;2.13;1.67;;;;;;;;;;10402601;28;20111;-60
2022/12/12 04:53:12;;;;;;;1.95;1.48;;;;;;;;;;10418484;28;20366;-60
2022/12/12 04:58:13;;;;;;;1.63;1.27;;;;;;;;;;10409312;28;20037;-60
2022/12/12 05:03:30;;;;;;;1.50;1.40;;;;;;;;;;10410814;28;20024;-60
2022/12/12 05:08:40;;;;;;;1.98;1.52;;;;;;;;;;10409656;28;20044;-60
2022/12/12 05:13:42;;;;;;;1.60;1.50;;;;;;;;;;10412268;28;20104;-60
2022/12/12 05:18:43;;;;;;;1.55;1.42;;;;;;;;;;10397430;28;20033;-60
2022/12/12 05:23:43;;;;;;;2.72;1.50;;;;;;;;;;10396939;28;20025;-60
2022/12/12 05:28:44;;;;;;;1.42;1.33;;;;;;;;;;10409287;28;20033;-61
2022/12/12 05:33:45;;;;;;;1.50;1.40;;;;;;;;;;10403780;28;20462;-60
2022/12/12 05:38:45;;;;;;;5.03;1.83;;;;;;;;;;10378392;28;20624;-61
2022/12/12 05:43:46;;;;;;;1.63;1.40;;;;;;;;;;10395347;28;20038;-61
2022/12/12 05:48:49;;;;;;;2.03;1.75;;;;;;;;;;10396589;28;20050;-61
2022/12/12 05:53:50;;;;;;;1.48;1.20;;;;;;;;;;10410076;28;20034;-61
2022/12/12 05:58:50;;;;;;;1.73;1.42;;;;;;;;;;10407499;28;20460;-61
2022/12/12 06:03:51;;;;;;;1.67;1.35;;;;;;;;;;10404118;28;20317;-59
2022/12/12 06:08:51;;;;;;;1.58;1.33;;;;;;;;;;10395447;28;20025;-60
2022/12/12 06:13:52;;;;;;;1.65;1.55;;;;;;;;;;10407768;28;20021;-60
2022/12/12 06:18:54;;;;;;;2.55;1.75;;;;;;;;;;10400188;28;20473;-60
2022/12/12 06:23:55;;;;;;;1.38;1.27;;;;;;;;;;10411033;28;20551;-61
2022/12/12 06:28:56;;;;;;;3.25;1.63;;;;;;;;;;10397958;28;20038;-61
2022/12/12 06:33:56;;;;;;;4.82;1.42;;;;;;;;;;10392134;28;20523;-60
2022/12/12 06:38:59;;;;;;;3.22;1.80;;;;;;;;;;10390790;28;20050;-60
2022/12/12 06:44:00;;;;;;;1.75;1.65;;;;;;;;;;10378057;28;20444;-60
2022/12/12 06:49:01;;;;;;;2.88;1.50;;;;;;;;;;10381167;28;20175;-60
2022/12/12 06:54:02;;;;;;;3.80;1.92;;;;;;;;;;10399154;28;20108;-60
2022/12/12 06:59:03;;;;;;;1.92;1.55;;;;;;;;;;10393613;28;20353;-61
2022/12/12 07:04:04;;;;;;;7.63;2.00;;;;;;;;;;10388479;28;20026;-61
2022/12/12 07:09:05;;;;;;;5.80;1.70;;;;;;;;;;10382355;28;20088;-61
2022/12/12 07:14:06;;;;;;;4.53;2.10;;;;;;;;;;10377492;28;20030;-61
2022/12/12 07:19:08;;;;;;;7.35;1.80;;;;;;;;;;10400483;28;20042;-61
2022/12/12 07:24:09;;;;;;;3.38;1.83;;;;;;;;;;10373218;28;20038;-61
2022/12/12 07:29:10;;;;;;;2.70;1.60;;;;;;;;;;10401926;28;20041;-61
2022/12/12 07:34:10;;;;;;;3.45;1.60;;;;;;;;;;10405829;28;20060;-61
2022/12/12 07:39:12;;;;;;;2.90;1.85;;;;;;;;;;10394207;28;20052;-61
2022/12/12 07:44:14;;;;;;;3.30;2.00;;;;;;;;;;10402091;28;20025;-61
2022/12/12 07:49:15;;;;;;;3.47;2.15;;;;;;;;;;10404321;28;20523;-61
2022/12/12 07:54:16;;;;;;;5.85;2.22;;;;;;;;;;10404018;28;20028;-61
2022/12/12 07:59:17;;;;;;;6.97;2.20;;;;;;;;;;10405142;28;21232;-61
2022/12/12 08:04:17;;;;;;;3.38;2.28;;;;;;;;;;10404054;28;20037;-61
2022/12/12 08:09:18;;;;;;;2.88;2.00;;;;;;;;;;10403911;28;20037;-61
2022/12/12 08:14:19;;;;;;;2.80;2.17;;;;;;;;;;10404845;28;20030;-61
2022/12/12 08:19:20;;;;;;;4.93;2.17;;;;;;;;;;10405037;28;20025;-60
2022/12/12 08:24:20;;;;;;;4.60;2.10;;;;;;;;;;10392484;28;20037;-61
2022/12/12 08:29:21;;;;;;;3.35;2.25;;;;;;;;;;10405006;28;20393;-60
2022/12/12 08:34:22;;;;;;;3.88;2.10;;;;;;;;;;10411261;28;20034;-61
2022/12/12 08:39:22;;;;;;;4.95;2.08;;;;;;;;;;10403598;28;20021;-60
2022/12/12 08:44:23;;;;;;;2.33;1.85;;;;;;;;;;10407663;28;20113;-61
2022/12/12 08:49:24;;;;;;;4.03;2.22;;;;;;;;;;10410631;28;20053;-60
2022/12/12 08:54:25;;;;;;;4.15;2.05;;;;;;;;;;10410585;28;20436;-61
2022/12/12 08:59:25;;;;;;;3.22;2.28;;;;;;;;;;10410449;28;20252;-61
2022/12/12 09:04:26;;;;;;;3.60;2.17;;;;;;;;;;10410994;28;20262;-61
2022/12/12 09:09:26;;;;;;;3.17;2.10;;;;;;;;;;10409916;28;20030;-61
2022/12/12 09:14:27;;;;;;;2.95;2.25;;;;;;;;;;10410761;28;20033;-61
2022/12/12 09:19:28;;;;;;;2.78;2.33;;;;;;;;;;10410557;28;20083;-61
2022/12/12 09:24:28;;;;;;;5.35;2.15;;;;;;;;;;10410086;28;20033;-61
2022/12/12 09:29:29;;;;;;;2.67;2.40;;;;;;;;;;10398602;28;20041;-61
2022/12/12 09:34:30;;;;;;;4.30;2.13;;;;;;;;;;10398288;28;20045;-61
2022/12/12 09:39:30;;;;;;;3.05;2.15;;;;;;;;;;10400224;28;20048;-61
2022/12/12 09:44:31;;;;;;;4.38;2.10;;;;;;;;;;10399672;28;20057;-60
2022/12/12 09:49:49;;;;;;;2.53;2.20;;;;;;;;;;10402402;28;20141;-61
2022/12/12 09:54:49;;;;;;;3.20;2.37;;;;;;;;;;10423975;28;20029;-61
2022/12/12 10:00:02;;;;;;;2.65;2.20;;;;;;;;;;10402146;28;20119;-61
2022/12/12 10:05:27;;;;;;;2.90;1.90;;;;;;;;;;10391723;28;20026;-61
2022/12/12 10:10:37;;;;;;;3.65;2.50;;;;;;;;;;10408199;28;20036;-61
2022/12/12 10:15:42;;;;;;;2.42;2.20;;;;;;;;;;10407420;28;20025;-61
2022/12/12 10:20:58;;;;;;;2.45;2.03;;;;;;;;;;10423046;28;20022;-61
2022/12/12 10:26:03;;;;;;;3.05;2.20;;;;;;;;;;10395245;28;20048;-61
2022/12/12 10:31:35;;;;;;;3.63;2.35;;;;;;;;;;10408214;28;20059;-61
2022/12/12 10:36:57;;;;;;;2.67;2.35;;;;;;;;;;10399038;28;20029;-60
2022/12/12 10:42:23;;;;;;;3.80;2.20;;;;;;;;;;10392736;28;20087;-60
2022/12/12 10:47:24;;;;;;;2.22;1.90;;;;;;;;;;10418800;28;20165;-60
2022/12/12 10:52:25;;;;;;;2.30;2.10;;;;;;;;;;10382884;28;20037;-60
2022/12/12 10:57:32;;;;;;;4.68;2.28;;;;;;;;;;10394172;28;20034;-61
2022/12/12 11:02:41;;;;;;;2.53;2.15;;;;;;;;;;10393110;28;20026;-61
2022/12/12 11:07:45;;;;;;;;;;;;;;;;;;10393543;28;20026;-61
2022/12/12 11:12:45;;;;;;;3.20;2.08;;;;;;;;;;10397012;28;19921;-61
2022/12/12 11:17:48;;;;;;;2.75;1.90;;;;;;;;;;10404104;28;20512;-60
2022/12/12 11:22:53;;;;;;;3.42;2.13;;;;;;;;;;10393394;28;20470;-60
2022/12/12 11:27:55;;;;;;;4.18;2.05;;;;;;;;;;10395680;28;20021;-60
2022/12/12 11:32:56;;;;;;;3.65;2.20;;;;;;;;;;10380668;28;20404;-60
2022/12/12 11:38:07;;;;;;;2.58;2.10;;;;;;;;;;10397079;28;20037;-60
2022/12/12 11:43:45;;;;;;;2.55;1.90;;;;;;;;;;10401855;28;20112;-60
2022/12/12 11:48:46;;;;;;;3.43;2.30;;;;;;;;;;10404840;28;20076;-60
2022/12/12 11:53:46;;;;;;;1.83;1.65;;;;;;;;;;10405788;28;20061;-60
2022/12/12 11:59:14;;;;;;;2.70;1.90;;;;;;;;;;10403879;28;20037;-60
2022/12/12 12:04:31;;;;;;;3.13;2.17;;;;;;;;;;10405691;28;20104;-60
2022/12/12 12:09:48;;;;;;;2.15;1.95;;;;;;;;;;10413100;28;20035;-61
2022/12/12 12:15:14;;;;;;;2.55;2.17;;;;;;;;;;10424026;28;20109;-60
2022/12/12 12:20:59;;;;;;;2.00;1.80;;;;;;;;;;10407025;28;20049;-60
2022/12/12 12:26:16;;;;;;;4.13;2.25;;;;;;;;;;10387931;28;20030;-60
2022/12/12 12:31:16;;;;;;;4.50;2.25;;;;;;;;;;10388889;28;20022;-61
2022/12/12 12:36:36;;;;;;;2.30;2.10;;;;;;;;;;10404353;28;20026;-60
2022/12/12 12:41:56;;;;;;;2.50;1.80;;;;;;;;;;10396778;28;20026;-60
2022/12/12 12:47:28;;;;;;;2.70;2.20;;;;;;;;;;10411281;28;20072;-60
2022/12/12 12:52:40;;;;;;;2.13;1.90;;;;;;;;;;10396356;28;20109;-60
2022/12/12 12:57:43;;;;;;;2.15;1.95;;;;;;;;;;10395404;28;20060;-61
2022/12/12 13:03:00;;;;;;;3.03;2.13;;;;;;;;;;10409640;28;20485;-61
2022/12/12 13:08:23;;;;;;;2.50;1.80;;;;;;;;;;10409329;28;20038;-60
2022/12/12 13:13:33;;;;;;;1.75;1.55;;;;;;;;;;10408520;28;20528;-60
2022/12/12 13:18:35;;;;;;;2.10;1.90;;;;;;;;;;10405627;28;20025;-60
2022/12/12 13:23:51;;;;;;;5.43;2.05;;;;;;;;;;10406236;28;20053;-60
2022/12/12 13:29:29;;;;;;;2.90;2.08;;;;;;;;;;10385064;28;20033;-60
2022/12/12 13:34:36;;;;;;;1.80;1.70;;;;;;;;;;10386125;28;20080;-60
2022/12/12 13:39:37;;;;;;;4.05;1.83;;;;;;;;;;10383896;28;20017;-60
2022/12/12 13:44:46;;;;;;;4.22;2.00;;;;;;;;;;10386152;28;20033;-60
2022/12/12 13:49:54;;;;;;;3.83;2.15;;;;;;;;;;10379323;28;20050;-60
2022/12/12 13:55:17;;;;;;;4.93;2.23;;;;;;;;;;10408164;28;20052;-60
2022/12/12 14:00:19;;;;;;;8.95;2.10;;;;;;;;;;10400060;28;20315;-60
2022/12/12 14:05:30;;;;;;;3.47;1.98;;;;;;;;;;10409767;28;20030;-60
2022/12/12 14:10:42;;;;;;;3.20;2.03;;;;;;;;;;10407436;28;20028;-60
2022/12/12 14:15:45;;;;;;;4.88;2.15;;;;;;;;;;10409099;28;20109;-60
2022/12/12 14:21:02;;;;;;;2.38;1.90;;;;;;;;;;10407138;28;20234;-60
2022/12/12 14:26:28;;;;;;;4.28;2.60;;;;;;;;;;10401407;28;20049;-60
2022/12/12 14:31:30;;;;;;;2.17;1.98;;;;;;;;;;10395569;28;20136;-60
2022/12/12 14:36:56;;;;;;;2.53;2.00;;;;;;;;;;10391291;28;20370;-60
2022/12/12 14:41:57;;;;;;;2.15;1.60;;;;;;;;;;10404329;28;20076;-60
2022/12/12 14:47:05;;;;;;;8.50;1.83;;;;;;;;;;10415749;28;20049;-60
2022/12/12 14:52:05;;;;;;;3.17;1.73;;;;;;;;;;10405578;28;20029;-60
2022/12/12 14:57:06;;;;;;;6.53;1.77;;;;;;;;;;10407489;28;20027;-60
2022/12/12 15:02:23;;;;;;;4.90;2.05;;;;;;;;;;10404738;28;20056;-60
2022/12/12 15:07:33;;;;;;;3.60;2.08;;;;;;;;;;10406225;28;20101;-60
2022/12/12 15:12:41;;;;;;;4.18;1.80;;;;;;;;;;10405682;28;20052;-61
2022/12/12 15:17:48;;;;;;;2.10;1.80;;;;;;;;;;10405937;28;20079;-60
2022/12/12 15:22:58;;;;;;;2.92;1.80;;;;;;;;;;10405891;28;20032;-60
2022/12/12 15:28:00;;;;;;;3.00;1.73;;;;;;;;;;10405314;28;20025;-60
2022/12/12 15:33:06;;;;;;;2.45;2.00;;;;;;;;;;10422027;28;20037;-60
2022/12/12 15:38:12;;;;;;;3.25;1.63;;;;;;;;;;10397877;28;20049;-60
2022/12/12 15:43:17;;;;;;;2.22;1.98;;;;;;;;;;10401666;28;20025;-60
2022/12/12 15:48:18;;;;;;;2.92;1.77;;;;;;;;;;10405262;28;20050;-60
2022/12/12 15:53:24;;;;;;;5.60;2.00;;;;;;;;;;10404330;28;20063;-60
2022/12/12 15:58:38;;;;;;;2.05;1.85;;;;;;;;;;10419402;28;20143;-60
2022/12/12 16:04:05;;;;;;;2.03;1.70;;;;;;;;;;10391875;28;20445;-60
2022/12/12 16:09:09;;;;;;;2.90;1.70;;;;;;;;;;10404836;28;20033;-61
2022/12/12 16:14:37;;;;;;;3.20;1.88;;;;;;;;;;10380982;28;20100;-61
2022/12/12 16:19:53;;;;;;;14.02;1.80;;;;;;;;;;10394872;28;20040;-60
2022/12/12 16:25:08;;;;;;;2.03;1.77;;;;;;;;;;10377859;28;20025;-60
2022/12/12 16:30:13;;;;;;;3.38;1.95;;;;;;;;;;10374200;28;20380;-60
2022/12/12 16:35:17;;;;;;;5.32;1.98;;;;;;;;;;10401573;28;20013;-59
2022/12/12 16:40:20;;;;;;;2.88;2.00;;;;;;;;;;10395740;28;20489;-60
2022/12/12 16:45:20;;;;;;;5.80;2.40;;;;;;;;;;10401494;28;20092;-60
2022/12/12 16:50:21;;;;;;;3.25;1.98;;;;;;;;;;10404111;28;20050;-59
2022/12/12 16:55:22;;;;;;;3.60;2.15;;;;;;;;;;10410048;28;20049;-59
2022/12/12 17:00:23;;;;;;;2.55;2.10;;;;;;;;;;10411330;28;20022;-60
2022/12/12 17:05:25;;;;;;;2.80;2.20;;;;;;;;;;10398270;28;20037;-60
2022/12/12 17:10:26;;;;;;;4.70;2.10;;;;;;;;;;10410589;28;20179;-60
2022/12/12 17:15:29;;;;;;;3.83;2.50;;;;;;;;;;10411043;28;20029;-59
2022/12/12 17:20:30;;;;;;;4.60;2.70;;;;;;;;;;10410790;28;20451;-60
2022/12/12 17:25:31;;;;;;;5.25;2.47;;;;;;;;;;10397979;28;20040;-60
2022/12/12 17:30:32;;;;;;;2.75;2.30;;;;;;;;;;10409697;28;20041;-59
2022/12/12 17:35:33;;;;;;;2.75;2.47;;;;;;;;;;10394185;28;20034;-60
2022/12/12 17:40:34;;;;;;;3.90;2.60;;;;;;;;;;10403423;28;20045;-60
2022/12/12 17:45:34;;;;;;;6.78;2.85;;;;;;;;;;10393621;28;20440;-60
2022/12/12 17:50:35;;;;;;;4.30;3.03;;;;;;;;;;10399611;28;20037;-59
2022/12/12 17:55:39;;;;;;;3.05;2.60;;;;;;;;;;10408865;28;20041;-59
2022/12/12 18:00:40;;;;;;;4.15;3.22;;;;;;;;;;10389113;28;20030;-60
2022/12/12 18:05:40;;;;;;;6.97;3.70;;;;;;;;;;10396897;28;20397;-60
2022/12/12 18:10:41;;;;;;;6.82;3.35;;;;;;;;;;10387116;28;20041;-60
2022/12/12 18:15:43;;;;;;;9.30;3.45;;;;;;;;;;10408546;28;20362;-60
2022/12/12 18:20:43;;;;;;;5.07;3.47;;;;;;;;;;10402381;28;20080;-60
2022/12/12 18:25:45;;;;;;;8.23;3.67;;;;;;;;;;10408082;28;20045;-60
2022/12/12 18:30:49;;;;;;;5.80;3.67;;;;;;;;;;10388118;28;20034;-60
2022/12/12 18:35:49;;;;;;;12.88;4.38;;;;;;;;;;10393791;28;20109;-59
2022/12/12 18:40:52;;;;;;;12.57;4.65;;;;;;;;;;10397774;28;20045;-59
2022/12/12 18:46:10;;;;;;;14.05;4.55;;;;;;;;;;10387635;28;20120;-60
2022/12/12 18:51:18;;;;;;;11.57;4.57;;;;;;;;;;10397577;28;20089;-59
2022/12/12 18:56:25;;;;;;;6.90;3.97;;;;;;;;;;10391186;28;20044;-60
2022/12/12 19:01:33;;;;;;;8.73;3.80;;;;;;;;;;10400370;28;20056;-60
2022/12/12 19:06:36;;;;;;;7.60;4.43;;;;;;;;;;10404115;28;20075;-60
2022/12/12 19:11:37;;;;;;;11.18;4.22;;;;;;;;;;10430227;28;20396;-60
2022/12/12 19:16:38;;;;;;;7.10;4.32;;;;;;;;;;10394466;28;20268;-60
2022/12/12 19:21:40;;;;;;;6.95;4.30;;;;;;;;;;10374749;28;20576;-59
2022/12/12 19:26:43;;;;;;;7.13;3.97;;;;;;;;;;10392289;28;20029;-60
2022/12/12 19:31:44;;;;;;;11.77;4.10;;;;;;;;;;10384590;28;20123;-60
2022/12/12 19:36:45;;;;;;;6.70;4.07;;;;;;;;;;10388860;28;20370;-60
2022/12/12 19:41:45;;;;;;;10.93;4.35;;;;;;;;;;10403026;28;20085;-60
2022/12/12 19:46:46;;;;;;;6.78;4.60;;;;;;;;;;10401797;28;20038;-59
2022/12/12 19:51:47;;;;;;;9.80;4.50;;;;;;;;;;10385229;28;20038;-60
2022/12/12 19:56:47;;;;;;;10.55;4.70;;;;;;;;;;10402883;28;20033;-59
2022/12/12 20:01:48;;;;;;;6.05;4.20;;;;;;;;;;10390726;28;20073;-59
2022/12/12 20:06:50;;;;;;;8.27;4.15;;;;;;;;;;10401192;28;20037;-59
2022/12/12 20:11:52;;;;;;;9.07;4.25;;;;;;;;;;10397267;28;20034;-59
2022/12/12 20:16:53;;;;;;;4.80;3.90;;;;;;;;;;10396460;28;20033;-59
2022/12/12 20:21:55;;;;;;;9.80;4.65;;;;;;;;;;10399821;28;20400;-60
2022/12/12 20:27:05;;;;;;;7.38;4.30;;;;;;;;;;10382617;28;20032;-59
2022/12/12 20:32:05;;;;;;;9.20;4.50;;;;;;;;;;10384095;28;20042;-58
2022/12/12 20:37:06;;;;;;;7.28;4.57;;;;;;;;;;10387523;28;20029;-59
2022/12/12 20:42:08;;;;;;;7.68;4.68;;;;;;;;;;10378078;28;20049;-58
2022/12/12 20:47:13;;;;;;;7.78;4.18;;;;;;;;;;10381512;28;20057;-59
2022/12/12 20:52:13;;;;;;;7.50;4.30;;;;;;;;;;10388222;28;20500;-58
2022/12/12 20:57:14;;;;;;;7.72;4.47;;;;;;;;;;10388525;28;20036;-58
2022/12/12 21:02:15;;;;;;;9.45;5.15;;;;;;;;;;10392010;28;20092;-58
2022/12/12 21:07:15;;;;;;;6.50;4.28;;;;;;;;;;10374613;28;20045;-59
2022/12/12 21:12:16;;;;;;;10.75;4.53;;;;;;;;;;10392579;28;20374;-58
2022/12/12 21:17:16;;;;;;;7.32;4.13;;;;;;;;;;10398347;28;20424;-59
2022/12/12 21:22:17;;;;;;;10.48;4.60;;;;;;;;;;10393757;28;20049;-59
2022/12/12 21:27:17;;;;;;;10.80;4.40;;;;;;;;;;10388142;28;20034;-59
2022/12/12 21:32:18;;;;;;;9.07;4.47;;;;;;;;;;10395388;28;20156;-59
2022/12/12 21:37:19;;;;;;;6.30;4.05;;;;;;;;;;10398740;28;20520;-59
2022/12/12 21:42:20;;;;;;;13.55;4.82;;;;;;;;;;10388191;28;20048;-58
2022/12/12 21:47:20;;;;;;;12.10;4.60;;;;;;;;;;10383545;28;20056;-59
2022/12/12 21:52:21;;;;;;;12.35;5.05;;;;;;;;;;10384417;28;20040;-59
2022/12/12 21:57:23;;;;;;;9.25;4.20;;;;;;;;;;10386027;28;20389;-59
2022/12/12 22:02:25;;;;;;;13.98;4.88;;;;;;;;;;10398858;28;20040;-59
2022/12/12 22:07:25;;;;;;;13.27;4.82;;;;;;;;;;10393767;28;20565;-59
2022/12/12 22:12:26;;;;;;;17.08;4.78;;;;;;;;;;10403314;28;20164;-58
2022/12/12 22:17:28;;;;;;;19.40;4.68;;;;;;;;;;10386604;28;20029;-59
2022/12/12 22:22:29;;;;;;;6.88;4.00;;;;;;;;;;10387082;28;20041;-59
2022/12/12 22:27:33;;;;;;;13.50;4.45;;;;;;;;;;10395175;28;20045;-59
2022/12/12 22:32:34;;;;;;;10.30;4.45;;;;;;;;;;10403893;28;20041;-59
2022/12/12 22:37:34;;;;;;;11.35;3.97;;;;;;;;;;10391131;28;20496;-59
2022/12/12 22:42:35;;;;;;;13.82;4.13;;;;;;;;;;10400146;28;20447;-60
2022/12/12 22:47:35;;;;;;;7.22;3.83;;;;;;;;;;10390304;28;20490;-60
2022/12/12 22:52:36;;;;;;;9.52;4.38;;;;;;;;;;10394085;28;20435;-59
2022/12/12 22:57:36;;;;;;;9.52;4.30;;;;;;;;;;10402387;28;20056;-58
2022/12/12 23:02:37;;;;;;;7.22;3.75;;;;;;;;;;10391162;28;20033;-58
2022/12/12 23:07:37;;;;;;;9.07;4.15;;;;;;;;;;10403113;28;20240;-59
2022/12/12 23:12:43;;;;;;;15.50;4.35;;;;;;;;;;10405026;28;20389;-59
2022/12/12 23:17:43;;;;;;;7.18;4.38;;;;;;;;;;10405960;28;20045;-58
2022/12/12 23:22:45;;;;;;;8.60;3.53;;;;;;;;;;10405808;28;20045;-58
2022/12/12 23:27:45;;;;;;;5.88;3.58;;;;;;;;;;10401533;28;20302;-58
2022/12/12 23:32:46;;;;;;;8.00;4.20;;;;;;;;;;10385606;28;20261;-58
2022/12/12 23:37:46;;;;;;;6.75;3.90;;;;;;;;;;10391563;28;20037;-59
2022/12/12 23:42:47;;;;;;;10.75;3.92;;;;;;;;;;10388767;28;20032;-58
2022/12/12 23:47:48;;;;;;;11.68;3.85;;;;;;;;;;10369261;28;20037;-59
2022/12/12 23:52:48;;;;;;;7.50;3.33;;;;;;;;;;10378882;28;20029;-59
2022/12/12 23:57:50;;;;;;;5.25;3.47;;;;;;;;;;10407965;28;20131;-59
